createdAt,value
2017-06-21T00:00:11.579Z,933.33
2017-06-21T00:00:39.750Z,933.3
2017-06-21T00:01:07.757Z,933.28
2017-06-21T00:01:35.924Z,933.3
2017-06-21T00:02:04.190Z,933.27
2017-06-21T00:03:15.491Z,933.34
2017-06-21T00:03:43.746Z,933.37
2017-06-21T00:04:12.050Z,933.43
2017-06-21T00:04:40.312Z,933.4
2017-06-21T00:05:08.482Z,933.35
2017-06-21T00:05:36.661Z,933.39
2017-06-21T00:06:04.759Z,933.41
2017-06-21T00:06:32.838Z,933.39
2017-06-21T00:07:00.939Z,933.36
2017-06-21T00:07:29.203Z,933.4
2017-06-21T00:07:57.378Z,933.39
2017-06-21T00:09:08.683Z,933.38
2017-06-21T00:09:36.848Z,933.38
2017-06-21T00:10:05.063Z,933.41
2017-06-21T00:10:33.140Z,933.43
2017-06-21T00:11:01.216Z,933.41
2017-06-21T00:11:29.505Z,933.39
2017-06-21T00:11:57.794Z,933.46
2017-06-21T00:12:26.059Z,933.41
2017-06-21T00:12:54.256Z,933.4
2017-06-21T00:13:22.524Z,933.45
2017-06-21T00:13:50.693Z,933.45
2017-06-21T00:15:01.905Z,933.45
2017-06-21T00:15:29.976Z,933.48
2017-06-21T00:15:58.277Z,933.46
2017-06-21T00:16:26.543Z,933.49
2017-06-21T00:16:54.615Z,933.51
2017-06-21T00:17:22.801Z,933.51
2017-06-21T00:17:50.992Z,933.51
2017-06-21T00:18:19.251Z,933.51
2017-06-21T00:18:47.451Z,933.51
2017-06-21T00:19:15.618Z,933.5
2017-06-21T00:19:43.791Z,933.51
2017-06-21T00:20:55.000Z,933.53
2017-06-21T00:21:23.078Z,933.55
2017-06-21T00:21:51.380Z,933.56
2017-06-21T00:22:19.644Z,933.57
2017-06-21T00:22:47.906Z,933.58
2017-06-21T00:23:16.082Z,933.58
2017-06-21T00:23:44.280Z,933.62
2017-06-21T00:24:12.445Z,933.57
2017-06-21T00:24:40.544Z,933.6
2017-06-21T00:25:08.809Z,933.58
2017-06-21T00:25:37.070Z,933.56
2017-06-21T00:26:48.285Z,933.59
2017-06-21T00:27:16.449Z,933.54
2017-06-21T00:27:44.751Z,933.53
2017-06-21T00:28:12.829Z,933.53
2017-06-21T00:28:40.999Z,933.55
2017-06-21T00:29:08.995Z,933.57
2017-06-21T00:29:37.186Z,933.57
2017-06-21T00:30:05.357Z,933.56
2017-06-21T00:30:33.546Z,933.55
2017-06-21T00:31:01.715Z,933.54
2017-06-21T00:31:30.086Z,933.54
2017-06-21T00:32:41.296Z,933.54
2017-06-21T00:33:09.460Z,933.56
2017-06-21T00:33:37.764Z,933.53
2017-06-21T00:34:05.842Z,933.55
2017-06-21T00:34:33.952Z,933.58
2017-06-21T00:35:02.224Z,933.61
2017-06-21T00:35:30.422Z,933.6
2017-06-21T00:35:58.592Z,933.56
2017-06-21T00:36:26.689Z,933.56
2017-06-21T00:36:54.951Z,933.6
2017-06-21T00:37:23.215Z,933.57
2017-06-21T00:38:34.425Z,933.56
2017-06-21T00:39:02.500Z,933.57
2017-06-21T00:39:30.806Z,933.59
2017-06-21T00:39:58.972Z,933.58
2017-06-21T00:40:26.958Z,933.51
2017-06-21T00:40:55.231Z,933.54
2017-06-21T00:41:23.517Z,933.54
2017-06-21T00:41:51.682Z,933.52
2017-06-21T00:42:19.970Z,933.55
2017-06-21T00:42:48.230Z,933.5
2017-06-21T00:43:16.493Z,933.5
2017-06-21T00:44:27.701Z,933.53
2017-06-21T00:44:55.869Z,933.52
2017-06-21T00:45:24.176Z,933.52
2017-06-21T00:45:52.157Z,933.51
2017-06-21T00:46:20.325Z,933.54
2017-06-21T00:46:48.596Z,933.5
2017-06-21T00:47:16.788Z,933.45
2017-06-21T00:47:44.957Z,933.53
2017-06-21T00:48:12.869Z,933.48
2017-06-21T00:48:41.130Z,933.55
2017-06-21T00:49:09.305Z,933.51
2017-06-21T00:50:20.417Z,933.55
2017-06-21T00:50:48.679Z,933.51
2017-06-21T00:51:16.981Z,933.52
2017-06-21T00:51:45.145Z,933.54
2017-06-21T00:52:13.217Z,933.5
2017-06-21T00:52:41.393Z,933.54
2017-06-21T00:53:09.676Z,933.55
2017-06-21T00:53:37.750Z,933.55
2017-06-21T00:54:05.853Z,933.57
2017-06-21T00:54:34.121Z,933.56
2017-06-21T00:55:02.384Z,933.58
2017-06-21T00:56:13.687Z,933.58
2017-06-21T00:56:41.764Z,933.58
2017-06-21T00:57:10.068Z,933.59
2017-06-21T00:57:38.235Z,933.6
2017-06-21T00:58:06.402Z,933.64
2017-06-21T00:58:34.579Z,933.59
2017-06-21T00:59:02.867Z,933.59
2017-06-21T00:59:31.038Z,933.56
2017-06-21T00:59:59.329Z,933.6
2017-06-21T01:00:27.592Z,933.61
2017-06-21T01:00:55.758Z,933.61
2017-06-21T01:02:07.066Z,933.62
2017-06-21T01:02:35.132Z,933.65
2017-06-21T01:03:03.436Z,933.58
2017-06-21T01:03:31.605Z,933.58
2017-06-21T01:03:59.772Z,933.61
2017-06-21T01:04:27.942Z,933.61
2017-06-21T01:04:56.227Z,933.58
2017-06-21T01:05:24.492Z,933.58
2017-06-21T01:05:52.687Z,933.56
2017-06-21T01:06:20.853Z,933.56
2017-06-21T01:06:49.027Z,933.55
2017-06-21T01:08:00.238Z,933.55
2017-06-21T01:08:28.400Z,933.54
2017-06-21T01:08:56.706Z,933.5
2017-06-21T01:09:24.683Z,933.52
2017-06-21T01:09:52.754Z,933.52
2017-06-21T01:10:21.031Z,933.49
2017-06-21T01:10:49.334Z,933.5
2017-06-21T01:11:17.501Z,933.53
2017-06-21T01:11:45.797Z,933.51
2017-06-21T01:12:14.056Z,933.52
2017-06-21T01:12:42.318Z,933.53
2017-06-21T01:13:53.527Z,933.51
2017-06-21T01:14:21.600Z,933.53
2017-06-21T01:14:49.904Z,933.53
2017-06-21T01:15:18.168Z,933.55
2017-06-21T01:15:46.333Z,933.52
2017-06-21T01:16:14.603Z,933.53
2017-06-21T01:16:42.798Z,933.51
2017-06-21T01:17:10.962Z,933.5
2017-06-21T01:17:39.158Z,933.55
2017-06-21T01:18:07.420Z,933.51
2017-06-21T01:18:35.607Z,933.46
2017-06-21T01:19:46.942Z,933.54
2017-06-21T01:20:15.205Z,933.5
2017-06-21T01:20:43.509Z,933.51
2017-06-21T01:21:11.674Z,933.54
2017-06-21T01:21:39.650Z,933.48
2017-06-21T01:22:07.828Z,933.51
2017-06-21T01:22:36.021Z,933.49
2017-06-21T01:23:04.286Z,933.51
2017-06-21T01:23:32.576Z,933.51
2017-06-21T01:24:00.838Z,933.48
2017-06-21T01:24:29.104Z,933.52
2017-06-21T01:25:40.315Z,933.45
2017-06-21T01:26:08.290Z,933.52
2017-06-21T01:26:36.500Z,933.49
2017-06-21T01:27:04.769Z,933.5
2017-06-21T01:27:33.031Z,933.47
2017-06-21T01:28:01.304Z,933.47
2017-06-21T01:28:29.402Z,933.48
2017-06-21T01:28:57.572Z,933.45
2017-06-21T01:29:25.773Z,933.45
2017-06-21T01:29:53.943Z,933.46
2017-06-21T01:30:22.116Z,933.43
2017-06-21T01:31:33.325Z,933.47
2017-06-21T01:32:01.494Z,933.48
2017-06-21T01:32:29.712Z,933.47
2017-06-21T01:32:57.973Z,933.47
2017-06-21T01:33:26.046Z,933.51
2017-06-21T01:33:54.321Z,933.48
2017-06-21T01:34:22.612Z,933.53
2017-06-21T01:34:50.781Z,933.51
2017-06-21T01:35:18.885Z,933.47
2017-06-21T01:35:47.147Z,933.52
2017-06-21T01:36:15.410Z,933.52
2017-06-21T01:37:26.718Z,933.51
2017-06-21T01:37:54.700Z,933.56
2017-06-21T01:38:23.005Z,933.55
2017-06-21T01:38:50.986Z,933.59
2017-06-21T01:39:19.155Z,933.56
2017-06-21T01:39:47.139Z,933.54
2017-06-21T01:40:15.690Z,933.57
2017-06-21T01:40:43.861Z,933.54
2017-06-21T01:41:12.053Z,933.53
2017-06-21T01:41:40.317Z,933.57
2017-06-21T01:42:08.584Z,933.58
2017-06-21T01:43:19.702Z,933.57
2017-06-21T01:43:47.966Z,933.59
2017-06-21T01:44:16.269Z,933.61
2017-06-21T01:44:44.442Z,933.54
2017-06-21T01:45:12.703Z,933.54
2017-06-21T01:45:40.974Z,933.64
2017-06-21T01:46:09.079Z,933.59
2017-06-21T01:46:37.253Z,933.59
2017-06-21T01:47:05.447Z,933.55
2017-06-21T01:47:33.710Z,933.54
2017-06-21T01:48:01.973Z,933.58
2017-06-21T01:49:13.093Z,933.55
2017-06-21T01:49:41.164Z,933.58
2017-06-21T01:50:09.465Z,933.57
2017-06-21T01:50:37.635Z,933.57
2017-06-21T01:51:05.899Z,933.48
2017-06-21T01:51:34.172Z,933.54
2017-06-21T01:52:02.366Z,933.48
2017-06-21T01:52:30.627Z,933.52
2017-06-21T01:52:58.827Z,933.51
2017-06-21T01:53:26.903Z,933.46
2017-06-21T01:53:55.179Z,933.48
2017-06-21T01:55:06.486Z,933.45
2017-06-21T01:55:34.748Z,933.52
2017-06-21T01:56:03.053Z,933.47
2017-06-21T01:56:31.142Z,933.47
2017-06-21T01:56:59.217Z,933.54
2017-06-21T01:57:27.398Z,933.5
2017-06-21T01:57:55.691Z,933.52
2017-06-21T01:58:23.863Z,933.52
2017-06-21T01:58:52.058Z,933.5
2017-06-21T01:59:20.233Z,933.48
2017-06-21T01:59:48.401Z,933.45
2017-06-21T02:00:59.706Z,933.45
2017-06-21T02:01:27.962Z,933.45
2017-06-21T02:01:56.267Z,933.4
2017-06-21T02:02:24.433Z,933.42
2017-06-21T02:02:52.690Z,933.44
2017-06-21T02:03:20.965Z,933.4
2017-06-21T02:03:49.159Z,933.43
2017-06-21T02:04:17.426Z,933.34
2017-06-21T02:04:45.618Z,933.33
2017-06-21T02:05:13.882Z,933.36
2017-06-21T02:05:42.146Z,933.34
2017-06-21T02:06:53.449Z,933.39
2017-06-21T02:07:21.622Z,933.43
2017-06-21T02:07:49.926Z,933.42
2017-06-21T02:08:18.095Z,933.4
2017-06-21T02:08:46.172Z,933.41
2017-06-21T02:09:14.444Z,933.43
2017-06-21T02:09:42.735Z,933.35
2017-06-21T02:10:10.809Z,933.42
2017-06-21T02:10:38.909Z,933.41
2017-06-21T02:11:07.171Z,933.41
2017-06-21T02:11:35.341Z,933.41
2017-06-21T02:12:46.554Z,933.41
2017-06-21T02:13:14.813Z,933.39
2017-06-21T02:13:43.118Z,933.39
2017-06-21T02:14:11.290Z,933.42
2017-06-21T02:14:39.365Z,933.42
2017-06-21T02:15:07.640Z,933.42
2017-06-21T02:15:35.835Z,933.41
2017-06-21T02:16:03.908Z,933.43
2017-06-21T02:16:32.201Z,933.43
2017-06-21T02:17:00.458Z,933.44
2017-06-21T02:17:28.722Z,933.41
2017-06-21T02:18:39.934Z,933.39
2017-06-21T02:19:08.103Z,933.46
2017-06-21T02:19:36.408Z,933.47
2017-06-21T02:20:04.396Z,933.5
2017-06-21T02:20:32.562Z,933.44
2017-06-21T02:21:00.836Z,933.45
2017-06-21T02:21:29.131Z,933.52
2017-06-21T02:21:57.394Z,933.51
2017-06-21T02:22:25.681Z,933.61
2017-06-21T02:22:53.853Z,933.53
2017-06-21T02:23:22.115Z,933.56
2017-06-21T02:24:33.419Z,933.59
2017-06-21T02:25:01.491Z,933.62
2017-06-21T02:25:29.706Z,933.63
2017-06-21T02:25:57.969Z,933.65
2017-06-21T02:26:26.138Z,933.65
2017-06-21T02:26:54.326Z,933.62
2017-06-21T02:27:22.525Z,933.59
2017-06-21T02:27:50.599Z,933.6
2017-06-21T02:28:18.798Z,933.6
2017-06-21T02:28:47.062Z,933.64
2017-06-21T02:29:15.234Z,933.6
2017-06-21T02:30:26.447Z,933.62
2017-06-21T02:30:54.707Z,933.63
2017-06-21T02:31:23.017Z,933.63
2017-06-21T02:31:51.186Z,933.59
2017-06-21T02:32:19.451Z,933.67
2017-06-21T02:32:47.720Z,933.63
2017-06-21T02:33:16.004Z,933.65
2017-06-21T02:33:44.269Z,933.63
2017-06-21T02:34:12.562Z,933.64
2017-06-21T02:34:40.732Z,933.66
2017-06-21T02:35:08.808Z,933.65
2017-06-21T02:36:20.112Z,933.66
2017-06-21T02:36:48.191Z,933.62
2017-06-21T02:37:16.404Z,933.62
2017-06-21T02:37:44.668Z,933.57
2017-06-21T02:38:12.557Z,933.57
2017-06-21T02:38:40.825Z,933.6
2017-06-21T02:39:08.927Z,933.63
2017-06-21T02:39:37.100Z,933.63
2017-06-21T02:40:05.203Z,933.58
2017-06-21T02:40:33.461Z,933.53
2017-06-21T02:41:01.726Z,933.53
2017-06-21T02:42:12.845Z,933.53
2017-06-21T02:42:41.010Z,933.53
2017-06-21T02:43:09.220Z,933.49
2017-06-21T02:43:37.492Z,933.47
2017-06-21T02:44:05.753Z,933.46
2017-06-21T02:44:34.024Z,933.54
2017-06-21T02:45:02.311Z,933.5
2017-06-21T02:45:30.296Z,933.52
2017-06-21T02:45:58.491Z,933.49
2017-06-21T02:46:26.660Z,933.51
2017-06-21T02:46:54.833Z,933.46
2017-06-21T02:48:06.045Z,933.46
2017-06-21T02:48:34.118Z,933.51
2017-06-21T02:49:02.419Z,933.49
2017-06-21T02:49:30.492Z,933.49
2017-06-21T02:49:58.660Z,933.54
2017-06-21T02:50:26.836Z,933.56
2017-06-21T02:50:55.125Z,933.53
2017-06-21T02:51:23.389Z,933.52
2017-06-21T02:51:51.682Z,933.54
2017-06-21T02:52:19.944Z,933.53
2017-06-21T02:52:48.205Z,933.54
2017-06-21T02:53:59.416Z,933.55
2017-06-21T02:54:27.586Z,933.53
2017-06-21T02:54:55.886Z,933.49
2017-06-21T02:55:24.060Z,933.53
2017-06-21T02:55:52.322Z,933.55
2017-06-21T02:56:20.593Z,933.49
2017-06-21T02:56:48.789Z,933.49
2017-06-21T02:57:17.053Z,933.53
2017-06-21T02:57:45.250Z,933.51
2017-06-21T02:58:13.511Z,933.46
2017-06-21T02:58:41.776Z,933.44
2017-06-21T02:59:52.984Z,933.45
2017-06-21T03:00:21.063Z,933.44
2017-06-21T03:00:49.367Z,933.41
2017-06-21T03:01:17.629Z,933.41
2017-06-21T03:01:45.610Z,933.37
2017-06-21T03:02:13.883Z,933.37
2017-06-21T03:02:42.069Z,933.35
2017-06-21T03:03:10.237Z,933.32
2017-06-21T03:03:38.332Z,933.32
2017-06-21T03:04:06.497Z,933.3
2017-06-21T03:04:34.669Z,933.27
2017-06-21T03:05:45.976Z,933.28
2017-06-21T03:06:14.060Z,933.24
2017-06-21T03:06:42.352Z,933.22
2017-06-21T03:07:10.522Z,933.21
2017-06-21T03:07:38.599Z,933.22
2017-06-21T03:08:06.870Z,933.25
2017-06-21T03:08:35.160Z,933.22
2017-06-21T03:09:03.426Z,933.24
2017-06-21T03:09:31.340Z,933.21
2017-06-21T03:09:59.507Z,933.19
2017-06-21T03:10:27.676Z,933.21
2017-06-21T03:11:38.798Z,933.2
2017-06-21T03:12:07.059Z,933.19
2017-06-21T03:12:35.360Z,933.24
2017-06-21T03:13:03.533Z,933.22
2017-06-21T03:13:31.603Z,933.2
2017-06-21T03:13:59.872Z,933.2
2017-06-21T03:14:28.066Z,933.23
2017-06-21T03:14:56.325Z,933.22
2017-06-21T03:15:24.430Z,933.23
2017-06-21T03:15:52.689Z,933.15
2017-06-21T03:16:20.954Z,933.22
2017-06-21T03:17:32.164Z,933.22
2017-06-21T03:18:00.330Z,933.17
2017-06-21T03:18:28.639Z,933.21
2017-06-21T03:18:56.902Z,933.24
2017-06-21T03:19:25.075Z,933.23
2017-06-21T03:19:53.345Z,933.21
2017-06-21T03:20:21.632Z,933.2
2017-06-21T03:20:49.803Z,933.21
2017-06-21T03:21:17.906Z,933.28
2017-06-21T03:21:46.170Z,933.23
2017-06-21T03:22:14.440Z,933.23
2017-06-21T03:23:25.743Z,933.22
2017-06-21T03:23:53.909Z,933.26
2017-06-21T03:24:22.212Z,933.24
2017-06-21T03:24:50.386Z,933.26
2017-06-21T03:25:18.648Z,933.27
2017-06-21T03:25:46.919Z,933.35
2017-06-21T03:26:15.207Z,933.28
2017-06-21T03:26:43.376Z,933.32
2017-06-21T03:27:11.670Z,933.28
2017-06-21T03:27:39.934Z,933.34
2017-06-21T03:28:08.109Z,933.33
2017-06-21T03:29:19.414Z,933.35
2017-06-21T03:29:47.675Z,933.36
2017-06-21T03:30:15.885Z,933.33
2017-06-21T03:30:44.147Z,933.33
2017-06-21T03:31:12.316Z,933.37
2017-06-21T03:31:40.494Z,933.33
2017-06-21T03:32:08.785Z,933.27
2017-06-21T03:32:37.049Z,933.35
2017-06-21T03:33:05.149Z,933.32
2017-06-21T03:33:33.319Z,933.29
2017-06-21T03:34:01.301Z,933.31
2017-06-21T03:35:13.059Z,933.27
2017-06-21T03:35:41.226Z,933.32
2017-06-21T03:36:09.434Z,933.33
2017-06-21T03:36:37.511Z,933.26
2017-06-21T03:37:05.681Z,933.27
2017-06-21T03:37:33.862Z,933.26
2017-06-21T03:38:02.053Z,933.28
2017-06-21T03:38:30.126Z,933.26
2017-06-21T03:38:58.418Z,933.26
2017-06-21T03:39:26.682Z,933.25
2017-06-21T03:39:54.851Z,933.21
2017-06-21T03:41:05.968Z,933.31
2017-06-21T03:41:34.042Z,933.31
2017-06-21T03:42:02.247Z,933.3
2017-06-21T03:42:30.228Z,933.28
2017-06-21T03:42:58.302Z,933.3
2017-06-21T03:43:26.480Z,933.31
2017-06-21T03:43:54.669Z,933.3
2017-06-21T03:44:22.739Z,933.27
2017-06-21T03:44:51.028Z,933.3
2017-06-21T03:45:19.287Z,933.3
2017-06-21T03:45:47.273Z,933.26
2017-06-21T03:46:58.479Z,933.28
2017-06-21T03:47:26.736Z,933.22
2017-06-21T03:47:54.944Z,933.26
2017-06-21T03:48:23.209Z,933.29
2017-06-21T03:48:51.378Z,933.28
2017-06-21T03:49:19.457Z,933.28
2017-06-21T03:49:47.651Z,933.27
2017-06-21T03:50:15.819Z,933.26
2017-06-21T03:50:44.106Z,933.23
2017-06-21T03:51:12.180Z,933.3
2017-06-21T03:51:40.349Z,933.27
2017-06-21T03:52:51.461Z,933.29
2017-06-21T03:53:19.714Z,933.27
2017-06-21T03:53:47.738Z,933.28
2017-06-21T03:54:15.997Z,933.29
2017-06-21T03:54:44.172Z,933.25
2017-06-21T03:55:12.440Z,933.27
2017-06-21T03:55:40.731Z,933.28
2017-06-21T03:56:08.991Z,933.23
2017-06-21T03:56:37.184Z,933.23
2017-06-21T03:57:05.446Z,933.2
2017-06-21T03:57:33.427Z,933.2
2017-06-21T03:58:44.731Z,933.23
2017-06-21T03:59:12.804Z,933.18
2017-06-21T03:59:41.009Z,933.18
2017-06-21T04:00:09.179Z,933.16
2017-06-21T04:00:37.246Z,933.15
2017-06-21T04:01:05.426Z,933.15
2017-06-21T04:01:33.617Z,933.14
2017-06-21T04:02:01.787Z,933.16
2017-06-21T04:02:29.981Z,933.16
2017-06-21T04:02:58.149Z,933.17
2017-06-21T04:03:26.318Z,933.14
2017-06-21T04:04:37.623Z,933.17
2017-06-21T04:05:05.881Z,933.18
2017-06-21T04:05:34.091Z,933.16
2017-06-21T04:06:02.263Z,933.14
2017-06-21T04:06:30.330Z,933.18
2017-06-21T04:06:58.413Z,933.2
2017-06-21T04:07:26.696Z,933.18
2017-06-21T04:07:54.770Z,933.2
2017-06-21T04:08:22.963Z,933.2
2017-06-21T04:08:50.940Z,933.16
2017-06-21T04:09:19.108Z,933.2
2017-06-21T04:10:30.408Z,933.23
2017-06-21T04:10:58.479Z,933.18
2017-06-21T04:11:26.688Z,933.17
2017-06-21T04:11:54.951Z,933.2
2017-06-21T04:12:23.119Z,933.17
2017-06-21T04:12:51.390Z,933.17
2017-06-21T04:13:19.489Z,933.18
2017-06-21T04:13:47.652Z,933.2
2017-06-21T04:14:15.853Z,933.21
2017-06-21T04:14:44.116Z,933.19
2017-06-21T04:15:12.197Z,933.2
2017-06-21T04:16:23.418Z,933.23
2017-06-21T04:16:51.624Z,933.23
2017-06-21T04:17:19.913Z,933.21
2017-06-21T04:17:48.164Z,933.19
2017-06-21T04:18:16.315Z,933.21
2017-06-21T04:18:44.494Z,933.17
2017-06-21T04:19:12.652Z,933.13
2017-06-21T04:19:40.909Z,933.17
2017-06-21T04:20:09.201Z,933.18
2017-06-21T04:20:37.280Z,933.18
2017-06-21T04:21:05.423Z,933.12
2017-06-21T04:22:16.724Z,933.15
2017-06-21T04:22:44.926Z,933.16
2017-06-21T04:23:13.205Z,933.11
2017-06-21T04:23:41.354Z,933.13
2017-06-21T04:24:09.508Z,933.12
2017-06-21T04:24:37.818Z,933.1
2017-06-21T04:25:06.096Z,933.1
2017-06-21T04:25:34.395Z,933.12
2017-06-21T04:26:02.685Z,933.1
2017-06-21T04:26:30.951Z,933.07
2017-06-21T04:26:59.099Z,933.05
2017-06-21T04:28:10.303Z,933.11
2017-06-21T04:28:38.504Z,933.05
2017-06-21T04:29:06.787Z,933.04
2017-06-21T04:29:34.936Z,933.07
2017-06-21T04:30:03.086Z,933.09
2017-06-21T04:30:31.086Z,933.02
2017-06-21T04:30:59.381Z,933.02
2017-06-21T04:31:27.673Z,933.01
2017-06-21T04:31:55.786Z,932.99
2017-06-21T04:32:23.960Z,932.99
2017-06-21T04:32:52.107Z,932.99
2017-06-21T04:34:03.411Z,932.99
2017-06-21T04:34:31.705Z,932.99
2017-06-21T04:34:59.887Z,933
2017-06-21T04:35:27.943Z,932.96
2017-06-21T04:35:56.099Z,932.94
2017-06-21T04:36:24.278Z,932.97
2017-06-21T04:36:52.489Z,932.96
2017-06-21T04:37:20.788Z,932.99
2017-06-21T04:37:49.087Z,932.97
2017-06-21T04:38:17.349Z,932.97
2017-06-21T04:38:45.590Z,932.95
2017-06-21T04:39:56.797Z,932.92
2017-06-21T04:40:25.095Z,932.91
2017-06-21T04:40:53.376Z,932.97
2017-06-21T04:41:21.436Z,932.91
2017-06-21T04:41:49.590Z,932.9
2017-06-21T04:42:17.775Z,932.91
2017-06-21T04:42:45.985Z,932.92
2017-06-21T04:43:14.279Z,932.92
2017-06-21T04:43:42.575Z,932.9
2017-06-21T04:44:10.752Z,932.88
2017-06-21T04:44:38.898Z,932.88
2017-06-21T04:45:50.197Z,932.91
2017-06-21T04:46:18.493Z,932.92
2017-06-21T04:46:46.679Z,932.87
2017-06-21T04:47:14.735Z,932.86
2017-06-21T04:47:42.892Z,932.87
2017-06-21T04:48:11.169Z,932.87
2017-06-21T04:48:39.472Z,932.87
2017-06-21T04:49:07.700Z,932.88
2017-06-21T04:49:35.903Z,932.86
2017-06-21T04:50:03.982Z,932.88
2017-06-21T04:50:32.129Z,932.86
2017-06-21T04:51:43.352Z,932.87
2017-06-21T04:52:11.647Z,932.88
2017-06-21T04:52:39.948Z,932.89
2017-06-21T04:53:08.115Z,932.89
2017-06-21T04:53:36.285Z,932.88
2017-06-21T04:54:04.480Z,932.88
2017-06-21T04:54:32.693Z,932.85
2017-06-21T04:55:00.921Z,932.9
2017-06-21T04:55:29.034Z,932.92
2017-06-21T04:55:57.302Z,932.87
2017-06-21T04:56:25.360Z,932.92
2017-06-21T04:57:36.674Z,932.9
2017-06-21T04:58:04.975Z,932.89
2017-06-21T04:58:33.265Z,932.94
2017-06-21T04:59:01.521Z,932.95
2017-06-21T04:59:29.498Z,932.89
2017-06-21T04:59:57.697Z,932.91
2017-06-21T05:00:26.005Z,932.91
2017-06-21T05:00:54.334Z,932.92
2017-06-21T05:01:22.628Z,932.94
2017-06-21T05:01:50.894Z,932.92
2017-06-21T05:02:19.044Z,932.95
2017-06-21T05:03:30.264Z,932.91
2017-06-21T05:03:58.558Z,932.88
2017-06-21T05:04:26.851Z,932.93
2017-06-21T05:04:55.017Z,932.96
2017-06-21T05:05:23.277Z,932.92
2017-06-21T05:05:51.470Z,932.92
2017-06-21T05:06:19.684Z,932.9
2017-06-21T05:06:47.910Z,932.94
2017-06-21T05:07:16.022Z,932.93
2017-06-21T05:07:44.290Z,932.93
2017-06-21T05:08:12.437Z,932.91
2017-06-21T05:09:23.655Z,932.91
2017-06-21T05:09:51.762Z,932.91
2017-06-21T05:10:20.061Z,932.9
2017-06-21T05:10:48.323Z,932.87
2017-06-21T05:11:16.491Z,932.93
2017-06-21T05:11:44.687Z,932.91
2017-06-21T05:12:12.994Z,932.87
2017-06-21T05:12:41.315Z,932.88
2017-06-21T05:13:09.519Z,932.86
2017-06-21T05:13:37.684Z,932.86
2017-06-21T05:14:05.832Z,932.85
2017-06-21T05:15:17.046Z,932.88
2017-06-21T05:15:45.341Z,932.92
2017-06-21T05:16:13.637Z,932.92
2017-06-21T05:16:41.932Z,932.89
2017-06-21T05:17:10.068Z,932.87
2017-06-21T05:17:38.264Z,932.85
2017-06-21T05:18:06.475Z,932.86
2017-06-21T05:18:34.797Z,932.84
2017-06-21T05:19:03.092Z,932.87
2017-06-21T05:19:31.263Z,932.88
2017-06-21T05:19:59.510Z,932.85
2017-06-21T05:21:10.817Z,932.84
2017-06-21T05:21:39.019Z,932.79
2017-06-21T05:22:07.317Z,932.79
2017-06-21T05:22:35.482Z,932.77
2017-06-21T05:23:03.560Z,932.78
2017-06-21T05:23:31.852Z,932.81
2017-06-21T05:23:59.968Z,932.78
2017-06-21T05:24:28.291Z,932.77
2017-06-21T05:24:56.403Z,932.77
2017-06-21T05:25:24.661Z,932.79
2017-06-21T05:25:52.809Z,932.79
2017-06-21T05:27:03.845Z,932.76
2017-06-21T05:27:31.956Z,932.73
2017-06-21T05:28:00.164Z,932.74
2017-06-21T05:28:28.423Z,932.73
2017-06-21T05:28:56.498Z,932.74
2017-06-21T05:29:24.694Z,932.73
2017-06-21T05:29:52.998Z,932.7
2017-06-21T05:30:21.326Z,932.72
2017-06-21T05:30:49.529Z,932.75
2017-06-21T05:31:17.515Z,932.66
2017-06-21T05:31:45.754Z,932.71
2017-06-21T05:32:57.069Z,932.75
2017-06-21T05:33:25.362Z,932.72
2017-06-21T05:33:53.567Z,932.7
2017-06-21T05:34:21.737Z,932.69
2017-06-21T05:34:49.899Z,932.73
2017-06-21T05:35:18.193Z,932.67
2017-06-21T05:35:46.307Z,932.7
2017-06-21T05:36:14.632Z,932.65
2017-06-21T05:36:42.833Z,932.66
2017-06-21T05:37:11.007Z,932.67
2017-06-21T05:37:39.153Z,932.63
2017-06-21T05:38:50.468Z,932.65
2017-06-21T05:39:18.759Z,932.64
2017-06-21T05:39:47.053Z,932.63
2017-06-21T05:40:15.221Z,932.64
2017-06-21T05:40:43.389Z,932.63
2017-06-21T05:41:11.582Z,932.6
2017-06-21T05:41:39.790Z,932.61
2017-06-21T05:42:08.112Z,932.61
2017-06-21T05:42:36.212Z,932.62
2017-06-21T05:43:04.381Z,932.63
2017-06-21T05:43:32.620Z,932.62
2017-06-21T05:44:43.933Z,932.6
2017-06-21T05:45:12.227Z,932.62
2017-06-21T05:45:40.520Z,932.66
2017-06-21T05:46:08.774Z,932.63
2017-06-21T05:46:36.940Z,932.66
2017-06-21T05:47:05.226Z,932.61
2017-06-21T05:47:33.433Z,932.67
2017-06-21T05:48:01.669Z,932.63
2017-06-21T05:48:29.870Z,932.64
2017-06-21T05:48:58.042Z,932.64
2017-06-21T05:49:26.286Z,932.63
2017-06-21T05:50:37.509Z,932.66
2017-06-21T05:51:05.713Z,932.64
2017-06-21T05:51:33.914Z,932.65
2017-06-21T05:52:02.169Z,932.6
2017-06-21T05:52:30.337Z,932.64
2017-06-21T05:52:58.538Z,932.65
2017-06-21T05:53:26.655Z,932.63
2017-06-21T05:53:54.976Z,932.62
2017-06-21T05:54:23.269Z,932.63
2017-06-21T05:54:51.535Z,932.63
2017-06-21T05:55:19.775Z,932.64
2017-06-21T05:56:31.090Z,932.63
2017-06-21T05:56:59.294Z,932.65
2017-06-21T05:57:27.588Z,932.65
2017-06-21T05:57:55.847Z,932.64
2017-06-21T05:58:24.008Z,932.64
2017-06-21T05:58:52.113Z,932.65
2017-06-21T05:59:20.417Z,932.68
2017-06-21T05:59:48.643Z,932.68
2017-06-21T06:00:16.940Z,932.65
2017-06-21T06:00:45.115Z,932.67
2017-06-21T06:01:13.357Z,932.66
2017-06-21T06:02:24.666Z,932.64
2017-06-21T06:02:52.960Z,932.67
2017-06-21T06:03:21.069Z,932.67
2017-06-21T06:03:49.328Z,932.67
2017-06-21T06:04:17.495Z,932.69
2017-06-21T06:04:45.784Z,932.69
2017-06-21T06:05:13.992Z,932.65
2017-06-21T06:05:42.223Z,932.61
2017-06-21T06:06:10.520Z,932.64
2017-06-21T06:06:38.691Z,932.61
2017-06-21T06:07:06.930Z,932.67
2017-06-21T06:08:18.148Z,932.63
2017-06-21T06:08:46.441Z,932.68
2017-06-21T06:09:14.738Z,932.66
2017-06-21T06:09:43.002Z,932.64
2017-06-21T06:10:11.266Z,932.69
2017-06-21T06:10:39.462Z,932.66
2017-06-21T06:11:07.579Z,932.69
2017-06-21T06:11:35.905Z,932.71
2017-06-21T06:12:04.204Z,932.7
2017-06-21T06:12:32.471Z,932.71
2017-06-21T06:13:00.520Z,932.68
2017-06-21T06:14:11.735Z,932.67
2017-06-21T06:14:39.935Z,932.7
2017-06-21T06:15:08.232Z,932.68
2017-06-21T06:15:36.490Z,932.72
2017-06-21T06:16:04.654Z,932.69
2017-06-21T06:16:32.851Z,932.69
2017-06-21T06:17:01.157Z,932.69
2017-06-21T06:17:29.386Z,932.7
2017-06-21T06:17:57.680Z,932.65
2017-06-21T06:18:25.852Z,932.67
2017-06-21T06:18:54.097Z,932.69
2017-06-21T06:20:05.409Z,932.65
2017-06-21T06:20:33.706Z,932.67
2017-06-21T06:21:01.994Z,932.63
2017-06-21T06:21:30.251Z,932.7
2017-06-21T06:21:58.512Z,932.7
2017-06-21T06:22:26.802Z,932.65
2017-06-21T06:22:54.817Z,932.63
2017-06-21T06:23:22.949Z,932.64
2017-06-21T06:23:51.243Z,932.61
2017-06-21T06:24:19.508Z,932.67
2017-06-21T06:24:47.748Z,932.7
2017-06-21T06:25:58.869Z,932.71
2017-06-21T06:26:27.069Z,932.63
2017-06-21T06:26:55.372Z,932.69
2017-06-21T06:27:23.629Z,932.67
2017-06-21T06:27:51.792Z,932.69
2017-06-21T06:28:19.992Z,932.68
2017-06-21T06:28:48.305Z,932.65
2017-06-21T06:29:16.633Z,932.71
2017-06-21T06:29:44.902Z,932.71
2017-06-21T06:30:13.172Z,932.73
2017-06-21T06:30:41.402Z,932.67
2017-06-21T06:31:52.714Z,932.67
2017-06-21T06:32:20.817Z,932.68
2017-06-21T06:32:49.114Z,932.69
2017-06-21T06:33:17.378Z,932.73
2017-06-21T06:33:45.529Z,932.67
2017-06-21T06:34:13.707Z,932.71
2017-06-21T06:34:41.822Z,932.72
2017-06-21T06:35:10.028Z,932.69
2017-06-21T06:35:38.268Z,932.69
2017-06-21T06:36:06.534Z,932.71
2017-06-21T06:36:34.676Z,932.69
2017-06-21T06:37:45.982Z,932.71
2017-06-21T06:38:14.089Z,932.74
2017-06-21T06:38:42.369Z,932.75
2017-06-21T06:39:10.429Z,932.73
2017-06-21T06:39:38.576Z,932.75
2017-06-21T06:40:06.847Z,932.73
2017-06-21T06:40:35.059Z,932.77
2017-06-21T06:41:03.166Z,932.73
2017-06-21T06:41:31.365Z,932.76